Hauptseite
METAR-TAF:

METAR-TAF

Flughäfen :

Flughafen Köln/Bonn

Köln, Deutschland

Breite: 50-52N, Länge: 007-10E, Höhe: 91 m

Beobachtung

Neuester Wetterbericht von vor 31 Minuten, um 01:20 UTC
Wind 7 kt aus Ost/Nordost
Temperatur 10°C
Luftfeuchtigkeit 66%
Luftdruck 1022 hPa
Sichtweite 10 km oder mehr
keine Wolken unter 1500 m und keine Kumulonimbus oder Gewitterwolken

METAR: EDDK 310120Z 06007KT CAVOK 10/04 Q1022 NOSIG

Zeit: 03:51 (01:51 UTC)

Prognose

Neuester Wetterbericht von vor 2 Stunden und 51 Minuten, um 23:00 UTC
Gültige Prognose vom 31 um 00 UTC bis 01 um 06 UTC
Wind 4 kt aus Ost
Sichtweite 10 km oder mehr
keine Wolken unter 1500 m und keine Kumulonimbus oder Gewitterwolken
Übergehend zu
vom 31 um 07 UTC bis 31 um 10 UTC
Wind 9 kt aus Ost/Nordost
Übergehend zu
vom 31 um 17 UTC bis 31 um 20 UTC
Wind 4 kt aus Ost

TAF: EDDK 302300Z 3100/0106 09004KT CAVOK BECMG 3107/3110 07009KT BECMG 3117/3120 10004KT

Wetterbeobachtungen und Prognosen von mehr als 4000 Flughäfen (METAR und TAF Bericht).

Die verfügbaren Stationen werden durch gelbe und rote Markierungen auf der Karte dargestellt.

Führen Sie die Maus auf sie, um den Namen der Station zu sehen.

Darauf klicken, um die Beobachtung von Wetterbeobachtungen und Prognosen zu sehen.

Um die Karte zu ändern : klicken Sie auf den grünen Tasten mit einem schwarzen Kreuz Zum Vergrößern, auf den grünen Button mit einem Gedankenstrich zu verkleinern, oder auf die grünen Pfeile für benachbarte Karten.


METAR-TAF: